Time;durP1;ratioP1;P1;durP2;ratioP2;P2;SDS_P1;SDS_P2;PMS_P1;PMS_P2;Temp;Humidity;BMP_temperature;BMP_pressure;BME280_temperature;BME280_humidity;BME280_pressure;Samples;Min_cycle;Max_cycle;Signal;HPM_P1;HPM_P2
2021/12/09 00:00:04;;;;;;;21.08;9.60;;;;;;;-0.33;100.00;93974.78;4993808;28;20049;-76
2021/12/09 00:02:50;;;;;;;18.10;8.88;;;;;;;-0.34;100.00;93973.22;5007660;28;20092;-77
2021/12/09 00:05:16;;;;;;;17.17;8.60;;;;;;;-0.32;100.00;93978.91;5004905;28;20042;-76
2021/12/09 00:07:43;;;;;;;20.77;9.35;;;;;;;-0.39;100.00;93986.84;5009767;28;20046;-77
2021/12/09 00:10:11;;;;;;;18.33;8.13;;;;;;;-0.40;100.00;93987.09;5010306;28;20100;-77
2021/12/09 00:12:37;;;;;;;15.30;7.72;;;;;;;-0.39;100.00;93975.72;5010133;28;20507;-76
2021/12/09 00:15:04;;;;;;;16.90;8.23;;;;;;;-0.33;100.00;93982.53;5012534;28;20048;-77
2021/12/09 00:17:30;;;;;;;18.08;8.38;;;;;;;-0.40;100.00;93984.50;5005569;28;20523;-77
2021/12/09 00:19:56;;;;;;;19.65;8.25;;;;;;;-0.50;100.00;93971.44;4983032;28;20062;-77
2021/12/09 00:22:21;;;;;;;19.73;8.27;;;;;;;-0.58;100.00;93970.81;4999665;28;20049;-77
2021/12/09 00:24:47;;;;;;;19.55;8.95;;;;;;;-0.57;100.00;93967.22;5009890;28;20039;-75
2021/12/09 00:27:13;;;;;;;16.90;8.07;;;;;;;-0.58;100.00;93965.66;5025384;28;20053;-75
2021/12/09 00:29:38;;;;;;;19.67;8.68;;;;;;;-0.56;100.00;93953.28;5010032;28;20477;-74
2021/12/09 00:32:04;;;;;;;21.50;8.70;;;;;;;-0.58;100.00;93970.03;5009563;28;20045;-74
2021/12/09 00:34:33;;;;;;;18.05;8.30;;;;;;;-0.50;100.00;93972.22;5005575;28;20057;-74
2021/12/09 00:37:15;;;;;;;16.08;7.78;;;;;;;-0.39;100.00;93967.97;4980641;28;20041;-74
2021/12/09 00:39:42;;;;;;;18.83;8.15;;;;;;;-0.49;100.00;93983.34;4981279;28;20052;-75
2021/12/09 00:42:09;;;;;;;15.88;7.55;;;;;;;-0.52;100.00;93989.75;5006922;28;20041;-75
2021/12/09 00:44:34;;;;;;;14.95;7.72;;;;;;;-0.35;100.00;93994.91;5012455;28;20046;-74
2021/12/09 00:47:00;;;;;;;17.13;8.13;;;;;;;-0.49;100.00;93983.34;4991553;28;20042;-75
2021/12/09 00:49:30;;;;;;;17.13;8.27;;;;;;;-0.47;100.00;93994.25;4996900;28;20053;-75
2021/12/09 00:51:57;;;;;;;19.13;9.05;;;;;;;-0.54;100.00;93997.75;5009905;28;20038;-75
2021/12/09 00:54:22;;;;;;;17.80;8.50;;;;;;;-0.55;100.00;93996.19;5008573;28;20503;-75
2021/12/09 00:56:48;;;;;;;16.38;8.32;;;;;;;-0.38;100.00;93996.16;5009110;28;20045;-75
2021/12/09 00:59:14;;;;;;;16.10;7.63;;;;;;;-0.42;100.00;93983.94;5009455;28;20050;-76
2021/12/09 01:01:39;;;;;;;16.80;8.43;;;;;;;-0.43;100.00;93993.53;5005434;28;20138;-77
2021/12/09 01:04:05;;;;;;;15.93;8.52;;;;;;;-0.47;100.00;93991.66;5000471;28;20053;-77
2021/12/09 01:06:30;;;;;;;17.40;8.05;;;;;;;-0.39;100.00;93989.44;4993160;28;20045;-77
2021/12/09 01:08:56;;;;;;;17.10;8.25;;;;;;;-0.40;100.00;93997.44;5006720;28;20124;-77
2021/12/09 01:11:22;;;;;;;14.23;7.20;;;;;;;-0.23;100.00;94011.09;4991104;28;20077;-77
2021/12/09 01:13:47;;;;;;;15.50;7.78;;;;;;;-0.27;100.00;94017.78;5013379;28;20037;-77
2021/12/09 01:16:13;;;;;;;13.88;6.82;;;;;;;-0.35;100.00;94024.13;5009480;28;20077;-78
2021/12/09 01:18:40;;;;;;;15.85;7.97;;;;;;;-0.44;100.00;94022.19;5008634;28;20503;-77
2021/12/09 01:21:07;;;;;;;14.95;7.60;;;;;;;-0.43;100.00;94003.06;5009413;28;20041;-77
2021/12/09 01:23:33;;;;;;;15.48;7.68;;;;;;;-0.43;100.00;93992.72;5014887;28;20077;-78
2021/12/09 01:26:02;;;;;;;16.75;7.57;;;;;;;-0.47;100.00;93986.47;4998436;28;20054;-78
2021/12/09 01:28:32;;;;;;;14.77;7.20;;;;;;;-0.49;100.00;93967.84;5023804;28;20048;-77
2021/12/09 01:31:02;;;;;;;14.13;6.68;;;;;;;-0.50;100.00;93966.25;5007757;28;20048;-77
2021/12/09 01:33:34;;;;;;;12.88;6.78;;;;;;;-0.51;100.00;93981.00;5009041;28;20045;-77
2021/12/09 01:36:01;;;;;;;15.25;7.07;;;;;;;-0.54;100.00;93992.59;5005251;28;20507;-77
2021/12/09 01:38:30;;;;;;;15.57;6.90;;;;;;;-0.57;100.00;93993.06;5011821;28;20065;-76
2021/12/09 01:40:56;;;;;;;13.32;6.75;;;;;;;-0.55;100.00;94001.38;5009354;28;20403;-76
2021/12/09 01:43:22;;;;;;;14.77;6.63;;;;;;;-0.53;100.00;94004.50;5009099;28;20055;-77
2021/12/09 01:45:48;;;;;;;13.13;6.43;;;;;;;-0.59;100.00;94015.78;5008282;28;20113;-76
2021/12/09 01:48:15;;;;;;;12.70;6.78;;;;;;;-0.61;100.00;94020.38;4999037;28;20046;-77
2021/12/09 01:50:40;;;;;;;12.88;6.90;;;;;;;-0.66;100.00;94020.31;5008550;28;20073;-77
2021/12/09 01:53:09;;;;;;;14.05;7.13;;;;;;;-0.72;100.00;94021.25;5008706;28;20042;-78
2021/12/09 01:55:35;;;;;;;12.75;7.13;;;;;;;-0.68;100.00;94027.50;5007558;28;20490;-77
2021/12/09 01:58:01;;;;;;;14.32;7.10;;;;;;;-0.64;100.00;94028.59;5008582;28;20034;-75
2021/12/09 02:00:29;;;;;;;13.38;6.43;;;;;;;-0.58;100.00;94024.31;5008087;28;20038;-76
2021/12/09 02:02:55;;;;;;;13.85;7.00;;;;;;;-0.73;100.00;94025.63;5006981;28;20041;-75
2021/12/09 02:05:21;;;;;;;12.63;7.03;;;;;;;-0.77;100.00;94028.94;5008073;28;20045;-75
2021/12/09 02:07:47;;;;;;;11.30;6.13;;;;;;;-0.69;100.00;94031.09;5004811;28;20169;-75
2021/12/09 02:10:17;;;;;;;12.43;6.43;;;;;;;-0.77;100.00;94040.03;5009241;28;20553;-75
2021/12/09 02:12:45;;;;;;;13.50;6.38;;;;;;;-0.73;100.00;94035.19;4992346;28;20519;-76
2021/12/09 02:15:10;;;;;;;10.48;5.88;;;;;;;-0.65;100.00;94032.19;5001110;28;20073;-75
2021/12/09 02:17:36;;;;;;;14.50;7.30;;;;;;;-0.76;100.00;94020.13;4977837;28;20082;-75
2021/12/09 02:20:07;;;;;;;14.18;6.70;;;;;;;-0.75;100.00;94037.22;4994082;28;20061;-75
2021/12/09 02:22:34;;;;;;;11.07;6.45;;;;;;;-0.77;100.00;94034.09;5007408;28;20042;-75
2021/12/09 02:24:59;;;;;;;12.63;6.78;;;;;;;-0.78;100.00;94040.28;4983147;28;20033;-76
2021/12/09 02:27:26;;;;;;;12.45;6.43;;;;;;;-0.68;100.00;94043.00;5007634;28;20050;-75
2021/12/09 02:29:53;;;;;;;11.52;5.72;;;;;;;-0.72;100.00;94049.66;5007970;28;20425;-75
2021/12/09 02:32:19;;;;;;;12.18;6.25;;;;;;;-0.56;100.00;94046.31;4984707;28;20046;-75
2021/12/09 02:34:45;;;;;;;13.30;6.93;;;;;;;-0.66;100.00;94043.56;5004430;28;20042;-77
2021/12/09 02:37:13;;;;;;;12.88;6.82;;;;;;;-0.73;100.00;94037.78;5003394;28;20096;-77
2021/12/09 02:39:40;;;;;;;11.75;6.40;;;;;;;-0.81;100.00;94035.56;5000345;28;20100;-78
2021/12/09 02:42:06;;;;;;;13.45;6.95;;;;;;;-0.73;100.00;94022.28;5008019;28;20108;-77
2021/12/09 02:44:32;;;;;;;13.02;6.93;;;;;;;-0.77;100.00;94018.59;5008313;28;20042;-77
2021/12/09 02:46:57;;;;;;;11.82;6.30;;;;;;;-0.72;100.00;94022.03;5006347;28;20045;-78
2021/12/09 02:49:29;;;;;;;14.38;7.10;;;;;;;-0.83;100.00;94015.16;5008021;28;20109;-77
2021/12/09 02:51:57;;;;;;;12.43;6.22;;;;;;;-0.70;100.00;94021.81;5004536;28;20049;-78
2021/12/09 02:54:24;;;;;;;13.73;7.38;;;;;;;-0.77;100.00;94029.69;4994494;28;20096;-77
2021/12/09 02:56:52;;;;;;;14.77;7.88;;;;;;;-0.78;100.00;94027.34;5005556;28;20050;-76
2021/12/09 02:59:18;;;;;;;12.73;6.93;;;;;;;-0.77;100.00;94034.09;5001002;28;20046;-77
2021/12/09 03:04:19;;;;;;;13.45;6.80;;;;;;;-0.83;100.00;94055.66;5006556;28;20046;-77
2021/12/09 03:06:45;;;;;;;15.88;7.45;;;;;;;-0.85;100.00;94052.56;4999467;28;20046;-78
2021/12/09 03:09:14;;;;;;;15.10;7.68;;;;;;;-0.80;100.00;94061.16;5006297;28;20092;-78
2021/12/09 03:11:42;;;;;;;13.15;7.07;;;;;;;-0.71;100.00;94064.16;5010937;28;20050;-78
2021/12/09 03:14:09;;;;;;;13.07;6.93;;;;;;;-0.81;100.00;94061.41;5017158;28;20034;-77
2021/12/09 03:16:35;;;;;;;15.02;7.43;;;;;;;-0.85;100.00;94060.31;5014518;28;20127;-77
2021/12/09 03:19:05;;;;;;;13.23;6.95;;;;;;;-0.83;100.00;94056.47;5012913;28;20038;-78
2021/12/09 03:21:39;;;;;;;15.00;7.45;;;;;;;-0.85;100.00;94061.06;4992055;28;20042;-77
2021/12/09 03:24:08;;;;;;;15.23;7.50;;;;;;;-0.81;100.00;94069.16;5010002;28;20663;-78
2021/12/09 03:26:38;;;;;;;13.15;6.88;;;;;;;-0.85;100.00;94073.22;5010452;28;20049;-78
2021/12/09 03:29:06;;;;;;;13.15;7.07;;;;;;;-0.85;100.00;94083.53;4980228;28;20041;-78
2021/12/09 03:31:33;;;;;;;14.50;7.30;;;;;;;-0.85;100.00;94088.72;5010817;28;20057;-77
2021/12/09 03:33:59;;;;;;;14.15;7.20;;;;;;;-0.84;100.00;94085.91;5002270;28;20751;-77
2021/12/09 03:36:28;;;;;;;13.63;7.07;;;;;;;-0.80;100.00;94087.00;4991531;28;20047;-78
2021/12/09 03:38:58;;;;;;;13.70;7.35;;;;;;;-0.81;100.00;94095.00;5014060;28;20430;-77
2021/12/09 03:41:24;;;;;;;13.38;7.20;;;;;;;-0.85;100.00;94078.38;5016361;28;20053;-78
2021/12/09 03:43:50;;;;;;;14.70;6.82;;;;;;;-0.83;100.00;94079.72;5011069;28;20038;-78
2021/12/09 03:46:16;;;;;;;12.75;6.88;;;;;;;-0.79;100.00;94082.59;5006308;28;20052;-78
2021/12/09 03:48:42;;;;;;;13.32;7.30;;;;;;;-0.85;100.00;94083.53;5011889;28;20078;-77
2021/12/09 03:51:07;;;;;;;13.52;6.90;;;;;;;-0.81;100.00;94079.50;5011114;28;20050;-77
2021/12/09 03:53:33;;;;;;;17.70;7.00;;;;;;;-0.87;100.00;94087.13;5008818;28;20046;-78
2021/12/09 03:55:59;;;;;;;16.00;7.45;;;;;;;-0.88;100.00;94080.44;5009954;28;20419;-77
2021/12/09 03:58:25;;;;;;;14.75;7.95;;;;;;;-0.91;100.00;94091.19;5010373;28;20041;-78
2021/12/09 04:00:51;;;;;;;13.75;7.22;;;;;;;-0.86;100.00;94103.44;4991852;28;20037;-77
2021/12/09 04:03:17;;;;;;;14.30;7.18;;;;;;;-0.76;100.00;94098.44;4992000;28;20053;-78
2021/12/09 04:05:44;;;;;;;13.50;6.95;;;;;;;-0.81;100.00;94100.16;5010160;28;20054;-77
2021/12/09 04:08:10;;;;;;;15.77;7.70;;;;;;;-0.89;100.00;94094.34;4992147;28;20038;-77
2021/12/09 04:10:37;;;;;;;13.82;7.22;;;;;;;-0.87;100.00;94086.38;5009758;28;20072;-77
2021/12/09 04:13:03;;;;;;;14.60;7.38;;;;;;;-0.92;100.00;94083.69;5010401;28;20064;-77
2021/12/09 04:15:28;;;;;;;14.70;7.35;;;;;;;-0.89;100.00;94099.50;5009081;28;20508;-77
2021/12/09 04:17:54;;;;;;;14.50;7.30;;;;;;;-0.91;100.00;94111.84;5010293;28;20499;-78
2021/12/09 04:20:21;;;;;;;14.95;7.40;;;;;;;-0.91;100.00;94116.25;5010294;28;20042;-76
2021/12/09 04:22:49;;;;;;;16.75;7.68;;;;;;;-0.90;100.00;94113.44;5009627;28;20052;-78
2021/12/09 04:25:20;;;;;;;14.50;7.35;;;;;;;-0.90;100.00;94103.09;5004125;28;20045;-77
2021/12/09 04:27:46;;;;;;;15.00;7.47;;;;;;;-0.82;100.00;94090.81;5009500;28;20084;-78
2021/12/09 04:30:13;;;;;;;14.95;7.90;;;;;;;-0.83;100.00;94086.66;5009891;28;20084;-77
2021/12/09 04:32:39;;;;;;;14.63;7.32;;;;;;;-0.88;100.00;94083.00;5004454;28;20050;-77
2021/12/09 04:35:11;;;;;;;18.23;8.73;;;;;;;-0.92;100.00;94084.47;4991093;28;20034;-77
2021/12/09 04:37:38;;;;;;;18.02;8.18;;;;;;;-0.87;100.00;94087.13;5001679;28;20575;-77
2021/12/09 04:40:07;;;;;;;18.83;8.25;;;;;;;-0.76;100.00;94097.63;4982760;28;20050;-78
2021/12/09 04:42:33;;;;;;;17.13;8.30;;;;;;;-0.84;100.00;94106.56;5009717;28;20675;-78
2021/12/09 04:44:58;;;;;;;17.40;8.50;;;;;;;-0.89;100.00;94119.38;5008633;28;20045;-78
2021/12/09 04:47:24;;;;;;;18.38;8.15;;;;;;;-0.69;100.00;94113.78;5002915;28;20077;-78
2021/12/09 04:49:49;;;;;;;16.63;8.25;;;;;;;-0.78;100.00;94105.63;5009481;28;20041;-78
2021/12/09 04:52:15;;;;;;;18.48;8.00;;;;;;;-0.76;100.00;94107.97;4992887;28;20046;-78
2021/12/09 04:54:41;;;;;;;16.30;8.00;;;;;;;-0.80;100.00;94114.66;5009175;28;20042;-78
2021/12/09 04:57:12;;;;;;;19.20;8.68;;;;;;;-0.83;100.00;94128.00;5008627;28;20042;-78
2021/12/09 04:59:38;;;;;;;17.58;8.50;;;;;;;-0.85;100.00;94130.03;5013757;28;20044;-78
2021/12/09 05:02:10;;;;;;;17.55;9.07;;;;;;;-0.85;100.00;94124.88;4994061;28;20037;-77
2021/12/09 05:04:36;;;;;;;17.70;8.55;;;;;;;-0.75;100.00;94122.47;5012960;28;20049;-79
2021/12/09 05:07:01;;;;;;;17.77;8.65;;;;;;;-0.71;100.00;94126.16;5007736;28;20590;-76
2021/12/09 05:09:29;;;;;;;15.63;7.40;;;;;;;-0.71;100.00;94136.50;5021081;28;20461;-77
2021/12/09 05:11:54;;;;;;;15.77;7.85;;;;;;;-0.80;100.00;94132.72;4981601;28;20034;-77
2021/12/09 05:14:22;;;;;;;16.15;7.70;;;;;;;-0.77;100.00;94137.44;4990425;28;20056;-78
2021/12/09 05:16:52;;;;;;;17.15;7.38;;;;;;;-0.70;100.00;94144.00;5007346;28;20038;-78
2021/12/09 05:19:19;;;;;;;17.52;8.00;;;;;;;-0.70;100.00;94150.97;5008905;28;20049;-78
2021/12/09 05:21:45;;;;;;;15.30;7.45;;;;;;;-0.70;100.00;94153.56;4986858;28;20042;-77
2021/12/09 05:24:14;;;;;;;15.60;8.05;;;;;;;-0.70;100.00;94153.56;5004005;28;20412;-78
2021/12/09 05:26:45;;;;;;;16.20;7.60;;;;;;;-0.65;100.00;94166.56;5008772;28;20046;-77
2021/12/09 05:29:12;;;;;;;17.67;8.23;;;;;;;-0.73;100.00;94169.53;5008708;28;20057;-77
2021/12/09 05:34:22;;;;;;;16.17;7.85;;;;;;;-0.67;100.00;94181.53;5008923;28;20507;-77
2021/12/09 05:36:48;;;;;;;17.30;7.43;;;;;;;-0.75;100.00;94202.53;5005255;28;20037;-78
2021/12/09 05:39:15;;;;;;;13.43;7.22;;;;;;;-0.69;100.00;94201.63;5004255;28;20046;-77
2021/12/09 05:41:42;;;;;;;18.85;7.80;;;;;;;-0.73;100.00;94210.88;5008826;28;20050;-77
2021/12/09 05:44:09;;;;;;;13.65;7.07;;;;;;;-0.79;100.00;94211.75;5008751;28;20045;-78
2021/12/09 05:46:37;;;;;;;19.02;7.65;;;;;;;-0.79;100.00;94211.75;5004821;28;20053;-77
2021/12/09 05:49:03;;;;;;;18.42;7.40;;;;;;;-0.80;100.00;94220.56;5008392;28;20053;-77
2021/12/09 05:51:29;;;;;;;15.45;7.50;;;;;;;-0.75;100.00;94218.84;5008353;28;20057;-77
2021/12/09 05:53:55;;;;;;;17.17;6.88;;;;;;;-0.76;100.00;94216.47;4987588;28;20037;-77
2021/12/09 05:56:21;;;;;;;17.52;6.65;;;;;;;-0.78;100.00;94218.50;5008072;28;20121;-77
2021/12/09 05:58:48;;;;;;;14.13;6.72;;;;;;;-0.74;100.00;94219.63;5007690;28;20042;-77
2021/12/09 06:01:14;;;;;;;14.65;5.80;;;;;;;-0.62;100.00;94233.28;5007605;28;20060;-77
2021/12/09 06:03:40;;;;;;;16.52;6.72;;;;;;;-0.73;100.00;94231.53;5008869;28;20503;-77
2021/12/09 06:06:06;;;;;;;15.75;6.63;;;;;;;-0.67;100.00;94230.59;5007146;28;20068;-76
2021/12/09 06:08:32;;;;;;;14.45;6.45;;;;;;;-0.77;100.00;94233.00;4989923;28;20834;-79
2021/12/09 06:11:00;;;;;;;12.20;5.97;;;;;;;-0.82;100.00;94227.72;4986643;28;20048;-77
2021/12/09 06:13:29;;;;;;;12.85;5.97;;;;;;;-0.82;100.00;94225.94;5008305;28;20037;-76
2021/12/09 06:15:55;;;;;;;13.85;6.03;;;;;;;-0.76;100.00;94226.81;4999826;28;20050;-77
2021/12/09 06:18:20;;;;;;;14.15;6.50;;;;;;;-0.77;100.00;94227.84;4993282;28;20038;-77
2021/12/09 06:20:46;;;;;;;12.95;6.47;;;;;;;-0.77;100.00;94231.19;5008587;28;20037;-78
2021/12/09 06:23:12;;;;;;;13.77;6.55;;;;;;;-0.81;100.00;94234.47;5005615;28;20046;-77
2021/12/09 06:25:38;;;;;;;14.85;6.38;;;;;;;-0.79;100.00;94232.44;5007759;28;20467;-77
2021/12/09 06:28:04;;;;;;;13.35;6.28;;;;;;;-0.77;100.00;94235.59;5007862;28;20048;-77
2021/12/09 06:30:29;;;;;;;11.82;5.85;;;;;;;-0.77;100.00;94238.16;5007857;28;20042;-77
2021/12/09 06:32:55;;;;;;;11.75;5.72;;;;;;;-0.68;100.00;94239.38;5006621;28;20092;-76
2021/12/09 06:35:21;;;;;;;12.13;5.93;;;;;;;-0.76;100.00;94237.13;4989595;28;20085;-76
2021/12/09 06:37:48;;;;;;;13.85;6.53;;;;;;;-0.84;100.00;94230.53;5010455;28;20502;-77
2021/12/09 06:40:18;;;;;;;10.70;5.47;;;;;;;-0.83;100.00;94220.97;5011785;28;20050;-77
2021/12/09 06:42:45;;;;;;;13.05;5.00;;;;;;;-0.80;100.00;94220.56;5011722;28;20070;-77
2021/12/09 06:45:13;;;;;;;13.25;5.53;;;;;;;-0.75;100.00;94226.59;4993316;28;20076;-77
2021/12/09 06:47:39;;;;;;;15.48;6.20;;;;;;;-0.83;100.00;94231.31;4994284;28;20049;-78
2021/12/09 06:50:07;;;;;;;11.32;5.43;;;;;;;-0.75;100.00;94230.97;5010892;28;20038;-77
2021/12/09 06:52:33;;;;;;;13.02;4.85;;;;;;;-0.77;100.00;94230.41;5011508;28;20389;-77
2021/12/09 06:54:59;;;;;;;12.77;5.18;;;;;;;-0.79;100.00;94222.09;5000049;28;20048;-77
2021/12/09 06:57:25;;;;;;;9.50;4.75;;;;;;;-0.68;100.00;94229.03;4994314;28;20046;-75
2021/12/09 06:59:51;;;;;;;12.98;5.18;;;;;;;-0.70;100.00;94231.06;5011373;28;20415;-77
2021/12/09 07:02:17;;;;;;;9.27;4.93;;;;;;;-0.72;100.00;94230.50;5008440;28;20038;-76
2021/12/09 07:04:43;;;;;;;12.40;4.80;;;;;;;-0.77;100.00;94241.53;4992431;28;20096;-76
2021/12/09 07:07:08;;;;;;;11.93;4.53;;;;;;;-0.73;100.00;94241.88;5006522;28;20058;-76
2021/12/09 07:09:34;;;;;;;11.85;5.55;;;;;;;-0.79;100.00;94247.94;5005492;28;20052;-77
2021/12/09 07:12:00;;;;;;;14.10;5.40;;;;;;;-0.74;100.00;94245.47;5009049;28;20073;-76
2021/12/09 07:14:25;;;;;;;9.73;4.95;;;;;;;-0.55;100.00;94254.63;5001321;28;20096;-77
2021/12/09 07:16:51;;;;;;;8.80;4.30;;;;;;;-0.45;100.00;94248.06;5009947;28;20037;-76
2021/12/09 07:19:17;;;;;;;9.85;4.78;;;;;;;-0.48;100.00;94253.69;5010718;28;20426;-77
2021/12/09 07:21:43;;;;;;;11.90;4.72;;;;;;;-0.38;100.00;94251.28;5002127;28;20050;-77
2021/12/09 07:24:09;;;;;;;10.95;4.35;;;;;;;-0.62;100.00;94253.94;5012734;28;20045;-77
2021/12/09 07:26:35;;;;;;;8.73;4.55;;;;;;;-0.66;100.00;94262.38;5011599;28;20038;-77
2021/12/09 07:29:01;;;;;;;10.18;4.25;;;;;;;-0.63;100.00;94265.31;5020402;28;20517;-77
2021/12/09 07:31:27;;;;;;;9.88;4.35;;;;;;;-0.50;100.00;94271.22;5020064;28;20042;-76
2021/12/09 07:33:56;;;;;;;10.07;4.15;;;;;;;-0.56;100.00;94268.56;5009758;28;20556;-75
2021/12/09 07:36:21;;;;;;;7.55;4.13;;;;;;;-0.55;100.00;94264.97;5000713;28;20046;-75
2021/12/09 07:38:47;;;;;;;7.95;4.03;;;;;;;-0.51;100.00;94265.25;5010315;28;20581;-75
2021/12/09 07:41:14;;;;;;;8.13;4.47;;;;;;;-0.58;100.00;94265.38;4992580;28;20048;-75
2021/12/09 07:43:40;;;;;;;8.43;4.35;;;;;;;-0.62;100.00;94253.94;5017095;28;20140;-75
2021/12/09 07:46:06;;;;;;;8.38;4.53;;;;;;;-0.62;100.00;94259.09;5003318;28;20057;-75
2021/12/09 07:48:32;;;;;;;7.88;4.18;;;;;;;-0.61;100.00;94265.84;4988285;28;20054;-75
2021/12/09 07:50:57;;;;;;;7.68;3.83;;;;;;;-0.46;100.00;94272.31;5010480;28;20042;-75
2021/12/09 07:53:23;;;;;;;7.63;4.40;;;;;;;-0.43;100.00;94271.84;5010963;28;20042;-78
2021/12/09 07:55:51;;;;;;;8.25;4.43;;;;;;;-0.50;100.00;94277.19;5009892;28;20411;-75
2021/12/09 07:58:17;;;;;;;8.95;4.45;;;;;;;-0.51;100.00;94275.59;5006872;28;20057;-75
2021/12/09 08:00:43;;;;;;;9.32;4.22;;;;;;;-0.48;100.00;94279.53;5009209;28;20042;-74
2021/12/09 08:03:09;;;;;;;6.57;3.85;;;;;;;-0.45;100.00;94290.19;5010169;28;20499;-76
2021/12/09 08:05:44;;;;;;;8.25;4.18;;;;;;;-0.38;100.00;94287.47;4990146;28;20664;-77
2021/12/09 08:08:10;;;;;;;6.90;3.85;;;;;;;-0.46;100.00;94293.00;5001011;28;20045;-74
2021/12/09 08:10:37;;;;;;;8.88;4.35;;;;;;;-0.37;100.00;94307.16;5008255;28;20049;-75
2021/12/09 08:13:04;;;;;;;7.88;4.07;;;;;;;-0.33;100.00;94308.25;5009858;28;20105;-75
2021/12/09 08:15:37;;;;;;;6.10;3.50;;;;;;;-0.27;100.00;94320.25;5007914;28;20046;-75
2021/12/09 08:20:51;;;;;;;8.23;3.70;;;;;;;-0.27;100.00;94327.25;5005400;28;20038;-77
2021/12/09 08:23:17;;;;;;;6.35;3.70;;;;;;;-0.29;100.00;94335.19;5004896;28;20050;-76
2021/12/09 08:25:44;;;;;;;8.27;3.95;;;;;;;-0.29;100.00;94339.59;5003684;28;20607;-77
2021/12/09 08:28:11;;;;;;;7.65;3.90;;;;;;;-0.31;100.00;94347.59;5008671;28;20443;-76
2021/12/09 08:30:38;;;;;;;8.40;3.45;;;;;;;-0.21;100.00;94345.19;4999380;28;20096;-76
2021/12/09 08:33:05;;;;;;;10.10;4.30;;;;;;;-0.35;100.00;94338.72;5007650;28;20045;-77
2021/12/09 08:35:32;;;;;;;7.35;4.10;;;;;;;-0.36;100.00;94350.06;5005623;28;20069;-76
2021/12/09 08:37:58;;;;;;;7.72;4.10;;;;;;;-0.38;100.00;94341.75;5007032;28;20092;-75
2021/12/09 08:40:26;;;;;;;9.70;4.18;;;;;;;-0.44;100.00;94340.88;5008446;28;20128;-76
2021/12/09 08:42:52;;;;;;;10.25;4.70;;;;;;;-0.45;100.00;94335.94;5001548;28;20116;-76
2021/12/09 08:45:19;;;;;;;9.02;4.45;;;;;;;-0.44;100.00;94338.28;5007814;28;20053;-76
2021/12/09 08:47:46;;;;;;;8.13;3.85;;;;;;;-0.24;100.00;94331.94;5006193;28;20064;-76
2021/12/09 08:50:15;;;;;;;11.32;4.00;;;;;;;-0.33;100.00;94341.88;4984230;28;20046;-77
2021/12/09 08:52:41;;;;;;;12.20;4.10;;;;;;;-0.39;100.00;94345.34;5012944;28;20057;-75
2021/12/09 08:55:07;;;;;;;8.07;4.05;;;;;;;-0.38;100.00;94357.28;4987171;28;20076;-76
2021/12/09 08:57:36;;;;;;;9.13;4.40;;;;;;;-0.33;100.00;94359.97;5017288;28;20350;-76
2021/12/09 09:00:07;;;;;;;7.80;4.28;;;;;;;-0.35;100.00;94361.97;5008662;28;20073;-74
2021/12/09 09:02:32;;;;;;;8.00;3.97;;;;;;;-0.35;100.00;94367.16;5012434;28;20495;-77
2021/12/09 09:04:58;;;;;;;8.25;4.07;;;;;;;-0.40;100.00;94369.66;5010563;28;20088;-75
2021/12/09 09:07:24;;;;;;;10.52;4.32;;;;;;;-0.34;100.00;94368.72;5009155;28;20045;-77
2021/12/09 09:09:49;;;;;;;7.38;3.80;;;;;;;-0.37;100.00;94366.59;5013663;28;20134;-76
2021/12/09 09:12:16;;;;;;;8.85;4.10;;;;;;;-0.46;100.00;94380.88;4995056;28;20061;-76
2021/12/09 09:14:42;;;;;;;6.55;3.85;;;;;;;-0.50;100.00;94382.34;5014797;28;20604;-76
2021/12/09 09:17:08;;;;;;;6.90;3.60;;;;;;;-0.48;100.00;94377.75;5009966;28;20126;-75
2021/12/09 09:19:35;;;;;;;8.05;4.05;;;;;;;-0.53;100.00;94392.13;4997219;28;20041;-76
2021/12/09 09:22:00;;;;;;;6.75;3.83;;;;;;;-0.50;100.00;94395.25;5008259;28;20044;-77
2021/12/09 09:24:27;;;;;;;10.40;4.57;;;;;;;-0.33;100.00;94396.16;5009285;28;20046;-76
2021/12/09 09:26:52;;;;;;;11.82;4.38;;;;;;;-0.33;100.00;94391.00;5008024;28;20049;-77
2021/12/09 09:29:19;;;;;;;8.82;4.70;;;;;;;-0.31;100.00;94394.13;5010783;28;20159;-76
2021/12/09 09:31:44;;;;;;;8.50;4.60;;;;;;;-0.26;100.00;94389.06;5006872;28;20770;-76
2021/12/09 09:34:11;;;;;;;11.20;4.90;;;;;;;-0.23;100.00;94391.19;5007362;28;20050;-76
2021/12/09 09:36:39;;;;;;;8.75;4.45;;;;;;;-0.16;100.00;94391.03;5012231;28;20046;-76
2021/12/09 09:39:17;;;;;;;10.75;4.85;;;;;;;-0.24;100.00;94394.78;5012113;28;20046;-77
2021/12/09 09:44:54;;;;;;;10.13;4.90;;;;;;;-0.25;100.00;94393.19;4967720;28;20145;-77
2021/12/09 09:47:26;;;;;;;11.57;5.45;;;;;;;-0.28;100.00;94383.31;4992684;28;20046;-77
2021/12/09 09:49:53;;;;;;;11.20;6.30;;;;;;;-0.24;100.00;94389.59;5010723;28;20034;-76
2021/12/09 09:52:19;;;;;;;12.65;5.85;;;;;;;-0.25;100.00;94393.19;5010872;28;20038;-76
2021/12/09 09:54:46;;;;;;;10.02;5.50;;;;;;;-0.20;100.00;94387.38;4988522;28;20559;-76
2021/12/09 09:57:12;;;;;;;12.35;5.38;;;;;;;-0.14;100.00;94398.56;4989857;28;20125;-76
2021/12/09 09:59:42;;;;;;;12.32;5.72;;;;;;;-0.10;100.00;94402.25;5007648;28;20042;-76
2021/12/09 10:02:10;;;;;;;11.52;6.07;;;;;;;0.00;100.00;94405.06;4986405;28;20045;-76
2021/12/09 10:04:44;;;;;;;13.45;6.75;;;;;;;-0.08;100.00;94402.84;5007093;28;20073;-76
2021/12/09 10:07:19;;;;;;;17.10;7.03;;;;;;;-0.07;100.00;94404.38;5005816;28;20050;-75
2021/12/09 10:09:46;;;;;;;15.57;7.28;;;;;;;-0.07;100.00;94399.22;5006546;28;20041;-77
2021/12/09 10:12:12;;;;;;;14.40;8.20;;;;;;;-0.07;100.00;94399.22;5010209;28;20049;-77
2021/12/09 10:14:38;;;;;;;14.73;7.78;;;;;;;-0.02;100.00;94391.56;5006680;28;20056;-78
2021/12/09 10:17:08;;;;;;;21.00;8.95;;;;;;;0.00;100.00;94399.91;4989714;28;20050;-77
2021/12/09 10:19:50;;;;;;;15.00;7.82;;;;;;;-0.08;100.00;94397.66;5007293;28;20041;-77
2021/12/09 10:22:25;;;;;;;17.33;8.35;;;;;;;0.06;100.00;94406.72;5007796;28;20507;-77
2021/12/09 10:24:55;;;;;;;15.27;8.35;;;;;;;0.07;100.00;94403.13;5000290;28;20045;-77
2021/12/09 10:27:30;;;;;;;18.48;8.25;;;;;;;0.14;100.00;94401.19;5009600;28;20050;-77
2021/12/09 10:30:03;;;;;;;19.10;8.80;;;;;;;-0.01;100.00;94406.84;4980295;28;20034;-77
2021/12/09 10:32:32;;;;;;;18.08;8.77;;;;;;;0.17;100.00;94405.91;5005500;28;20634;-76
2021/12/09 10:35:08;;;;;;;17.27;7.93;;;;;;;0.21;100.00;94395.09;5010842;28;20038;-77
2021/12/09 10:37:35;;;;;;;22.73;8.63;;;;;;;0.10;100.00;94399.28;5000582;28;20046;-78
2021/12/09 10:40:09;;;;;;;19.92;8.23;;;;;;;0.08;100.00;94406.50;5009218;28;20042;-78
2021/12/09 10:42:43;;;;;;;19.20;8.45;;;;;;;0.00;100.00;94399.91;5008526;28;20594;-77
2021/12/09 10:45:17;;;;;;;19.38;8.48;;;;;;;0.01;100.00;94411.03;4994979;28;20103;-79
2021/12/09 10:47:59;;;;;;;20.02;8.50;;;;;;;0.03;100.00;94409.78;4994440;28;20341;-78
2021/12/09 10:56:13;;;;;;;19.88;8.48;;;;;;;0.16;100.00;94412.09;5014502;28;20046;-77
2021/12/09 10:58:42;;;;;;;15.73;7.43;;;;;;;0.20;100.00;94419.38;4999073;28;20068;-76
2021/12/09 11:01:16;;;;;;;14.90;7.35;;;;;;;0.21;100.00;94410.63;5005262;28;20041;-76
2021/12/09 11:03:44;;;;;;;21.45;7.57;;;;;;;0.25;100.00;94409.16;4989257;28;20081;-77
2021/12/09 11:06:15;;;;;;;16.65;7.45;;;;;;;0.13;100.00;94404.78;5006683;28;20550;-76
2021/12/09 11:08:49;;;;;;;23.27;8.23;;;;;;;0.10;100.00;94414.81;5009856;28;20048;-76
2021/12/09 11:11:34;;;;;;;;;;;;;;;0.19;100.00;94420.41;5010225;28;20046;-80
2021/12/09 11:14:08;;;;;;;19.25;7.22;;;;;;;0.16;100.00;94408.72;4997716;28;19926;-77
2021/12/09 11:16:43;;;;;;;19.33;7.65;;;;;;;0.12;100.00;94413.56;5016108;28;20045;-77
2021/12/09 11:19:13;;;;;;;20.75;8.13;;;;;;;-0.02;100.00;94412.25;4989027;28;20058;-77
2021/12/09 11:21:43;;;;;;;15.23;7.70;;;;;;;0.02;100.00;94410.78;5006890;28;20848;-77
2021/12/09 11:24:13;;;;;;;18.55;8.13;;;;;;;0.01;100.00;94411.78;5011797;28;20103;-77
2021/12/09 11:29:27;;;;;;;19.55;6.35;;;;;;;0.11;100.00;94416.38;5011707;28;20496;-77
2021/12/09 11:32:25;;;;;;;21.58;8.10;;;;;;;0.05;100.00;94418.09;4999378;28;20073;-77
2021/12/09 11:35:25;;;;;;;17.67;7.43;;;;;;;0.08;100.00;94422.78;5001964;28;20046;-78
2021/12/09 11:38:04;;;;;;;17.08;7.20;;;;;;;0.16;100.00;94425.03;4996163;28;20034;-78
2021/12/09 11:40:42;;;;;;;17.73;7.50;;;;;;;0.07;100.00;94426.41;5005671;28;20042;-78